createdAt,value
2023-02-02T00:02:00.066Z,62.78
2023-02-02T00:04:33.038Z,62.65
2023-02-02T00:07:04.096Z,62.88
2023-02-02T00:09:34.281Z,63.18
2023-02-02T00:12:03.501Z,63.50
2023-02-02T00:14:32.806Z,64.14
2023-02-02T00:17:01.660Z,64.57
2023-02-02T00:19:32.195Z,63.76
2023-02-02T00:22:01.138Z,63.52
2023-02-02T00:24:30.119Z,63.49
2023-02-02T00:27:00.579Z,63.51
2023-02-02T00:29:32.347Z,63.77
2023-02-02T00:32:01.133Z,64.11
2023-02-02T00:34:30.038Z,64.04
2023-02-02T00:36:59.187Z,63.94
2023-02-02T00:39:28.072Z,63.82
2023-02-02T00:41:57.516Z,64.16
2023-02-02T00:44:45.193Z,64.62
2023-02-02T00:47:13.968Z,64.67
2023-02-02T00:49:42.649Z,64.82
2023-02-02T00:52:11.682Z,65.00
2023-02-02T00:54:40.591Z,65.31
2023-02-02T00:57:13.789Z,65.02
2023-02-02T00:59:43.529Z,64.83
2023-02-02T01:02:13.518Z,64.92
2023-02-02T01:04:42.337Z,65.24
2023-02-02T01:07:11.327Z,65.28
2023-02-02T01:09:40.507Z,64.63
2023-02-02T01:12:10.170Z,64.25
2023-02-02T01:14:39.659Z,63.97
2023-02-02T01:17:08.572Z,64.09
2023-02-02T01:19:37.658Z,64.38
2023-02-02T01:22:07.219Z,64.26
2023-02-02T01:24:36.269Z,64.10
2023-02-02T01:27:07.611Z,64.28
2023-02-02T01:29:36.512Z,64.89
2023-02-02T01:32:05.730Z,65.07
2023-02-02T01:34:34.744Z,64.61
2023-02-02T01:37:03.605Z,64.35
2023-02-02T01:39:34.261Z,63.89
2023-02-02T01:42:03.994Z,63.76
2023-02-02T01:44:57.920Z,63.92
2023-02-02T01:47:30.614Z,63.62
2023-02-02T01:49:59.924Z,63.18
2023-02-02T01:52:31.765Z,62.72
2023-02-02T01:55:08.767Z,62.86
2023-02-02T01:57:44.033Z,63.06
2023-02-02T02:00:16.785Z,62.88
2023-02-02T02:02:48.787Z,63.08
2023-02-02T02:05:24.780Z,63.14
2023-02-02T02:08:01.948Z,63.51
2023-02-02T02:10:31.171Z,63.75
2023-02-02T02:13:00.288Z,63.43
2023-02-02T02:15:56.279Z,63.35
2023-02-02T02:18:48.718Z,63.27
2023-02-02T02:22:14.340Z,63.40
2023-02-02T02:25:48.272Z,63.96
2023-02-02T02:28:17.123Z,63.65
2023-02-02T02:31:01.232Z,63.95
2023-02-02T02:33:45.250Z,64.00
2023-02-02T02:36:39.917Z,64.57
2023-02-02T02:39:27.077Z,64.71
2023-02-02T02:42:01.437Z,64.48
2023-02-02T02:44:33.001Z,64.53
2023-02-02T02:47:03.818Z,64.75
2023-02-02T02:49:32.802Z,64.69
2023-02-02T02:52:01.728Z,64.72
2023-02-02T02:54:45.912Z,64.39
2023-02-02T02:57:29.989Z,64.06
2023-02-02T03:00:38.811Z,64.10
2023-02-02T03:03:34.968Z,64.50
2023-02-02T03:06:24.206Z,64.59
2023-02-02T03:09:08.501Z,64.44
2023-02-02T03:11:38.220Z,64.53
2023-02-02T03:14:10.163Z,64.72
2023-02-02T03:16:39.371Z,65.08
2023-02-02T03:19:09.787Z,64.99
2023-02-02T03:21:38.670Z,65.20
2023-02-02T03:24:08.125Z,65.10
2023-02-02T03:26:38.597Z,65.43
2023-02-02T03:29:11.889Z,65.00
2023-02-02T03:31:40.881Z,64.87
2023-02-02T03:34:10.700Z,65.24
2023-02-02T03:36:40.110Z,64.71
2023-02-02T03:39:08.847Z,65.10
2023-02-02T03:41:37.731Z,65.37
2023-02-02T03:44:06.522Z,65.88
2023-02-02T03:46:35.827Z,65.68
2023-02-02T03:49:04.455Z,65.63
2023-02-02T03:51:34.098Z,64.92
2023-02-02T03:54:02.809Z,64.73
2023-02-02T03:56:31.564Z,64.61
2023-02-02T03:59:00.657Z,64.94
2023-02-02T04:01:30.916Z,65.33
2023-02-02T04:04:00.321Z,65.66
2023-02-02T04:06:30.400Z,65.23
2023-02-02T04:08:58.887Z,65.14
2023-02-02T04:11:27.772Z,64.74
2023-02-02T04:13:56.560Z,65.03
2023-02-02T04:16:25.469Z,65.50
2023-02-02T04:18:54.195Z,65.62
2023-02-02T04:21:22.953Z,65.86
2023-02-02T04:23:51.913Z,65.94
2023-02-02T04:26:21.491Z,66.19
2023-02-02T04:28:50.655Z,66.61
2023-02-02T04:31:20.018Z,66.26
2023-02-02T04:33:48.945Z,66.69
2023-02-02T04:36:17.789Z,66.31
2023-02-02T04:38:51.221Z,66.75
2023-02-02T04:41:21.614Z,66.75
2023-02-02T04:43:50.779Z,66.35
2023-02-02T04:46:19.757Z,65.78
2023-02-02T04:48:50.272Z,65.09
2023-02-02T04:51:19.300Z,65.04
2023-02-02T04:53:48.024Z,64.79
2023-02-02T04:56:19.284Z,64.61
2023-02-02T04:58:48.448Z,64.02
2023-02-02T05:01:20.225Z,63.50
2023-02-02T05:03:50.320Z,63.86
2023-02-02T05:06:20.154Z,64.64
2023-02-02T05:08:49.435Z,64.71
2023-02-02T05:11:22.993Z,64.26
2023-02-02T05:13:54.551Z,64.55
2023-02-02T05:16:25.894Z,64.93
2023-02-02T05:18:58.242Z,65.84
2023-02-02T05:21:27.144Z,66.24
2023-02-02T05:23:55.952Z,66.57
2023-02-02T05:26:28.175Z,66.96
2023-02-02T05:28:57.783Z,67.53
2023-02-02T05:31:26.693Z,67.55
2023-02-02T05:33:55.592Z,67.75
2023-02-02T05:36:24.366Z,67.25
2023-02-02T05:38:53.761Z,66.27
2023-02-02T05:41:22.521Z,66.11
2023-02-02T05:43:51.439Z,66.40
2023-02-02T05:46:20.861Z,66.24
2023-02-02T05:48:49.972Z,66.22
2023-02-02T05:51:36.271Z,65.93
2023-02-02T05:54:05.362Z,66.46
2023-02-02T05:56:34.047Z,66.73
2023-02-02T05:59:06.901Z,66.73
2023-02-02T06:01:36.511Z,66.92
2023-02-02T06:04:05.437Z,66.58
2023-02-02T06:06:36.250Z,66.82
2023-02-02T06:09:06.856Z,66.70
2023-02-02T06:11:36.859Z,66.47
2023-02-02T06:14:06.443Z,66.32
2023-02-02T06:16:35.706Z,67.03
2023-02-02T06:19:05.150Z,67.26
2023-02-02T06:21:34.217Z,67.03
2023-02-02T06:24:03.051Z,66.95
2023-02-02T06:26:32.011Z,66.72
2023-02-02T06:29:00.917Z,66.85
2023-02-02T06:31:30.007Z,67.03
2023-02-02T06:33:59.405Z,66.74
2023-02-02T06:36:28.604Z,66.46
2023-02-02T06:38:59.152Z,65.87
2023-02-02T06:41:28.492Z,65.75
2023-02-02T06:43:57.532Z,65.59
2023-02-02T06:46:26.325Z,64.50
2023-02-02T06:48:55.373Z,63.93
2023-02-02T06:51:24.920Z,63.43
2023-02-02T06:53:53.977Z,63.39
2023-02-02T06:56:23.461Z,63.18
2023-02-02T06:58:52.584Z,63.09
2023-02-02T07:01:22.005Z,62.72
2023-02-02T07:03:54.470Z,62.85
2023-02-02T07:06:27.163Z,62.47
2023-02-02T07:09:02.723Z,62.81
2023-02-02T07:11:35.351Z,61.75
2023-02-02T07:14:10.475Z,60.88
2023-02-02T07:16:39.327Z,59.55
2023-02-02T07:19:08.347Z,57.93
2023-02-02T07:21:37.428Z,56.18
2023-02-02T07:24:07.688Z,54.19
2023-02-02T07:26:37.089Z,52.84
2023-02-02T07:29:07.318Z,50.90
2023-02-02T07:31:37.045Z,49.07
2023-02-02T07:34:07.229Z,47.57
2023-02-02T07:36:36.870Z,46.19
2023-02-02T07:39:06.273Z,44.40
2023-02-02T07:41:37.451Z,42.56
2023-02-02T07:44:07.882Z,41.06
2023-02-02T07:46:36.637Z,40.47
2023-02-02T07:49:07.713Z,38.91
2023-02-02T07:51:38.243Z,37.91
2023-02-02T07:54:09.899Z,37.43
2023-02-02T07:56:40.479Z,36.57
2023-02-02T07:59:11.218Z,35.90
2023-02-02T08:01:40.170Z,35.12
2023-02-02T08:04:08.945Z,34.14
2023-02-02T08:06:40.102Z,33.39
2023-02-02T08:09:10.090Z,32.89
2023-02-02T08:11:39.821Z,32.26
2023-02-02T08:14:09.352Z,31.52
2023-02-02T08:16:38.974Z,30.86
2023-02-02T08:19:08.534Z,30.68
2023-02-02T08:21:38.564Z,30.09
2023-02-02T08:24:07.795Z,29.23
2023-02-02T08:26:36.984Z,28.36
2023-02-02T08:29:09.016Z,27.49
2023-02-02T08:31:43.751Z,26.77
2023-02-02T08:34:14.660Z,26.44
2023-02-02T08:36:43.405Z,25.63
2023-02-02T08:39:15.182Z,25.40
2023-02-02T08:41:45.696Z,25.23
2023-02-02T08:44:16.938Z,24.84
2023-02-02T08:46:46.314Z,24.25
2023-02-02T08:49:15.834Z,23.98
2023-02-02T08:51:44.765Z,23.56
2023-02-02T08:54:14.099Z,23.01
2023-02-02T08:56:43.729Z,22.91
2023-02-02T08:59:13.399Z,22.42
2023-02-02T09:01:42.270Z,22.16
2023-02-02T09:04:19.191Z,21.48
2023-02-02T09:06:48.845Z,21.16
2023-02-02T09:09:19.449Z,20.64
2023-02-02T09:11:49.923Z,20.40
2023-02-02T09:14:20.558Z,20.33
2023-02-02T09:16:49.683Z,20.15
2023-02-02T09:19:20.094Z,19.95
2023-02-02T09:21:53.438Z,19.72
2023-02-02T09:24:23.858Z,19.85
2023-02-02T09:26:53.942Z,19.44
2023-02-02T09:29:23.673Z,19.20
2023-02-02T09:31:53.326Z,19.13
2023-02-02T09:34:23.068Z,19.06
2023-02-02T09:36:52.581Z,18.78
2023-02-02T09:39:23.396Z,18.71
2023-02-02T09:42:01.924Z,18.63
2023-02-02T09:44:50.811Z,18.27
2023-02-02T09:47:23.077Z,18.28
2023-02-02T09:50:04.130Z,18.12
2023-02-02T09:52:36.348Z,18.02
2023-02-02T09:55:22.645Z,17.73
2023-02-02T09:57:58.846Z,18.05
2023-02-02T10:00:38.476Z,17.86
2023-02-02T10:03:16.185Z,17.69
2023-02-02T10:06:18.997Z,17.44
2023-02-02T10:08:56.800Z,17.34
2023-02-02T10:11:50.621Z,17.10
2023-02-02T10:14:29.558Z,16.79
2023-02-02T10:17:10.229Z,16.58
2023-02-02T10:19:42.067Z,16.31
2023-02-02T10:22:20.626Z,15.99
2023-02-02T10:24:52.966Z,15.92
2023-02-02T10:27:38.648Z,15.76
2023-02-02T10:30:45.914Z,15.75
2023-02-02T10:33:40.320Z,15.96
2023-02-02T10:36:20.040Z,16.17
2023-02-02T10:38:58.733Z,15.87
2023-02-02T10:41:46.217Z,15.44
2023-02-02T10:44:31.326Z,15.50
2023-02-02T10:47:04.595Z,15.39
2023-02-02T10:49:37.829Z,15.26
2023-02-02T10:52:12.580Z,15.14
2023-02-02T10:54:57.880Z,15.17
2023-02-02T10:57:49.367Z,14.66
2023-02-02T11:00:40.904Z,14.39
2023-02-02T11:03:12.730Z,14.13
2023-02-02T11:06:01.191Z,13.81
2023-02-02T11:08:38.675Z,14.30
2023-02-02T11:11:21.656Z,13.85
2023-02-02T11:14:03.557Z,13.83
2023-02-02T11:16:42.794Z,13.80
2023-02-02T11:19:20.092Z,13.33
2023-02-02T11:21:53.820Z,13.04
2023-02-02T11:24:41.134Z,12.97
2023-02-02T11:27:18.384Z,13.16
2023-02-02T11:29:51.155Z,12.94
2023-02-02T11:32:38.541Z,12.80
2023-02-02T11:35:07.531Z,12.92
2023-02-02T11:37:38.885Z,12.98
2023-02-02T11:40:53.215Z,12.72
2023-02-02T11:43:32.449Z,12.83
2023-02-02T11:46:08.514Z,13.09
2023-02-02T11:48:40.341Z,12.99
2023-02-02T11:51:26.666Z,12.83
2023-02-02T11:54:01.740Z,12.58
2023-02-02T11:56:31.063Z,12.17
2023-02-02T11:59:04.365Z,12.47
2023-02-02T12:01:40.574Z,12.35
2023-02-02T12:04:20.025Z,12.48
2023-02-02T12:06:49.272Z,12.01
2023-02-02T12:09:23.331Z,12.16
2023-02-02T12:12:06.024Z,12.89
2023-02-02T12:14:35.278Z,12.99
2023-02-02T12:17:11.262Z,12.64
2023-02-02T12:19:51.839Z,12.86
2023-02-02T12:22:46.144Z,13.07
2023-02-02T12:25:16.978Z,13.20
2023-02-02T12:27:53.929Z,13.14
2023-02-02T12:31:06.322Z,13.26
2023-02-02T12:34:18.778Z,13.54
2023-02-02T12:37:04.657Z,13.69
2023-02-02T12:40:04.331Z,13.56
2023-02-02T12:42:55.042Z,13.64
2023-02-02T12:45:51.370Z,13.68
2023-02-02T12:48:44.610Z,13.76
2023-02-02T12:51:33.149Z,13.89
2023-02-02T12:54:32.930Z,13.95
2023-02-02T12:57:14.211Z,14.26
2023-02-02T12:59:52.109Z,14.18
2023-02-02T13:02:40.251Z,14.22
2023-02-02T13:05:20.955Z,14.33
2023-02-02T13:08:10.699Z,14.05
2023-02-02T13:10:47.429Z,14.36
2023-02-02T13:13:35.387Z,14.31
2023-02-02T13:16:12.732Z,14.40
2023-02-02T13:18:49.207Z,14.36
2023-02-02T13:21:23.175Z,14.22
2023-02-02T13:24:06.076Z,14.30
2023-02-02T13:26:41.374Z,14.37
2023-02-02T13:29:47.579Z,14.50
2023-02-02T13:32:22.322Z,14.51
2023-02-02T13:34:57.751Z,14.80
2023-02-02T13:38:05.883Z,14.88
2023-02-02T13:40:41.079Z,14.76
2023-02-02T13:43:30.854Z,14.81
2023-02-02T13:46:31.016Z,14.84
2023-02-02T13:49:18.964Z,15.14
2023-02-02T13:51:56.433Z,15.29
2023-02-02T13:55:18.819Z,15.24
2023-02-02T13:58:07.400Z,15.52
2023-02-02T14:00:48.518Z,15.60
2023-02-02T14:03:42.485Z,15.53
2023-02-02T14:06:23.230Z,15.41
2023-02-02T14:08:55.661Z,15.53
2023-02-02T14:11:32.134Z,15.46
2023-02-02T14:14:39.555Z,15.73
2023-02-02T14:17:14.467Z,15.82
2023-02-02T14:19:55.594Z,15.88
2023-02-02T14:22:45.282Z,15.69
2023-02-02T14:25:40.620Z,16.15
2023-02-02T14:28:12.715Z,16.29
2023-02-02T14:30:42.499Z,16.61
2023-02-02T14:33:28.387Z,16.79
2023-02-02T14:36:02.047Z,17.00
2023-02-02T14:38:54.646Z,17.14
2023-02-02T14:42:02.238Z,17.71
2023-02-02T14:44:31.974Z,18.00
2023-02-02T14:47:06.049Z,17.97
2023-02-02T14:49:36.976Z,18.33
2023-02-02T14:52:24.216Z,18.73
2023-02-02T14:54:54.298Z,18.79
2023-02-02T14:57:29.461Z,18.98
2023-02-02T15:00:01.317Z,19.22
2023-02-02T15:02:35.711Z,19.60
2023-02-02T15:05:32.102Z,20.35
2023-02-02T15:08:30.156Z,21.48
2023-02-02T15:11:02.802Z,22.68
2023-02-02T15:13:38.177Z,23.78
2023-02-02T15:16:20.490Z,24.67
2023-02-02T15:19:16.009Z,26.32
2023-02-02T15:21:50.724Z,27.50
2023-02-02T15:24:28.117Z,28.02
2023-02-02T15:27:00.635Z,28.91
2023-02-02T15:29:45.032Z,29.73
2023-02-02T15:32:23.307Z,30.80
2023-02-02T15:35:04.818Z,31.28
2023-02-02T15:37:43.301Z,32.32
2023-02-02T15:40:23.095Z,33.25
2023-02-02T15:43:08.551Z,33.79
2023-02-02T15:45:53.524Z,34.50
2023-02-02T15:48:33.104Z,35.14
2023-02-02T15:51:08.441Z,35.08
2023-02-02T15:53:46.255Z,34.69
2023-02-02T15:56:32.792Z,34.47
2023-02-02T15:59:03.223Z,34.45
2023-02-02T16:01:47.882Z,34.49
2023-02-02T16:04:35.527Z,34.61
2023-02-02T16:07:07.911Z,35.16
2023-02-02T16:09:42.047Z,35.59
2023-02-02T16:12:21.197Z,36.37
2023-02-02T16:14:55.435Z,37.40
2023-02-02T16:17:36.182Z,37.83
2023-02-02T16:20:18.315Z,38.39
2023-02-02T16:22:48.869Z,39.32
2023-02-02T16:25:22.337Z,39.57
2023-02-02T16:27:54.194Z,40.14
2023-02-02T16:30:38.019Z,40.79
2023-02-02T16:33:40.753Z,41.21
2023-02-02T16:36:26.795Z,41.71
2023-02-02T16:38:58.477Z,42.72
2023-02-02T16:41:36.441Z,42.98
2023-02-02T16:44:40.787Z,43.70
2023-02-02T16:47:28.824Z,44.25
2023-02-02T16:50:11.558Z,44.79
2023-02-02T16:53:05.824Z,45.78
2023-02-02T16:55:50.167Z,46.01
2023-02-02T16:58:23.709Z,46.53
2023-02-02T17:01:22.558Z,46.61
2023-02-02T17:03:56.300Z,46.90
2023-02-02T17:06:51.766Z,46.97
2023-02-02T17:09:34.047Z,47.49
2023-02-02T17:12:32.591Z,47.69
2023-02-02T17:15:23.090Z,48.01
2023-02-02T17:17:54.128Z,48.29
2023-02-02T17:20:24.153Z,48.75
2023-02-02T17:23:07.522Z,48.96
2023-02-02T17:25:45.397Z,49.25
2023-02-02T17:28:21.772Z,49.60
2023-02-02T17:31:00.840Z,49.73
2023-02-02T17:33:36.600Z,49.91
2023-02-02T17:36:07.543Z,50.37
2023-02-02T17:38:39.046Z,50.25
2023-02-02T17:41:15.182Z,50.64
2023-02-02T17:43:45.612Z,50.78
2023-02-02T17:46:15.214Z,51.17
2023-02-02T17:48:44.708Z,51.43
2023-02-02T17:51:17.872Z,51.67
2023-02-02T17:53:48.090Z,52.06
2023-02-02T17:56:18.571Z,51.85
2023-02-02T17:58:49.321Z,52.23
2023-02-02T18:01:19.745Z,52.40
2023-02-02T18:03:49.968Z,53.11
2023-02-02T18:06:19.520Z,53.10
2023-02-02T18:08:50.072Z,53.48
2023-02-02T18:11:19.613Z,53.82
2023-02-02T18:13:49.637Z,53.70
2023-02-02T18:16:21.052Z,53.83
2023-02-02T18:18:51.137Z,53.59
2023-02-02T18:21:22.362Z,53.66
2023-02-02T18:23:51.937Z,53.51
2023-02-02T18:26:23.120Z,53.55
2023-02-02T18:28:54.727Z,53.63
2023-02-02T18:31:25.227Z,53.41
2023-02-02T18:33:54.956Z,53.64
2023-02-02T18:36:25.570Z,53.78
2023-02-02T18:38:56.651Z,54.39
2023-02-02T18:41:27.421Z,55.00
2023-02-02T18:43:57.454Z,55.79
2023-02-02T18:46:28.167Z,56.44
2023-02-02T18:48:58.734Z,56.38
2023-02-02T18:51:28.650Z,56.70
2023-02-02T18:54:01.667Z,56.56
2023-02-02T18:56:31.515Z,56.85
2023-02-02T18:59:02.965Z,57.09
2023-02-02T19:01:34.721Z,56.75
2023-02-02T19:04:05.498Z,55.91
2023-02-02T19:07:01.150Z,55.40
2023-02-02T19:09:31.042Z,55.33
2023-02-02T19:12:03.097Z,56.05
2023-02-02T19:14:39.115Z,56.26
2023-02-02T19:17:30.791Z,56.95
2023-02-02T19:20:10.579Z,57.20
2023-02-02T19:22:40.170Z,57.14
2023-02-02T19:25:14.510Z,56.79
2023-02-02T19:27:44.599Z,56.80
2023-02-02T19:30:22.091Z,56.44
2023-02-02T19:32:52.178Z,56.48
2023-02-02T19:35:25.925Z,56.98
2023-02-02T19:38:01.897Z,56.91
2023-02-02T19:40:31.358Z,56.41
2023-02-02T19:43:28.918Z,56.56
2023-02-02T19:46:02.077Z,56.90
2023-02-02T19:48:36.090Z,57.39
2023-02-02T19:51:44.927Z,57.68
2023-02-02T19:54:43.022Z,57.59
2023-02-02T19:57:41.800Z,57.04
2023-02-02T20:00:30.701Z,56.80
2023-02-02T20:03:07.951Z,56.58
2023-02-02T20:05:45.262Z,56.71
2023-02-02T20:08:38.949Z,56.88
2023-02-02T20:11:36.842Z,57.73
2023-02-02T20:14:36.393Z,57.58
2023-02-02T20:17:27.776Z,58.48
2023-02-02T20:20:00.453Z,58.92
2023-02-02T20:22:31.058Z,59.49
2023-02-02T20:25:07.209Z,59.13
2023-02-02T20:27:38.859Z,58.62
2023-02-02T20:30:28.874Z,57.78
2023-02-02T20:33:03.935Z,57.79
2023-02-02T20:35:39.843Z,58.08
2023-02-02T20:38:28.749Z,58.48
2023-02-02T20:41:00.039Z,59.01
2023-02-02T20:43:30.891Z,59.04
2023-02-02T20:46:00.654Z,59.11
2023-02-02T20:48:31.168Z,58.77
2023-02-02T20:51:02.816Z,58.71
2023-02-02T20:53:33.042Z,58.67
2023-02-02T20:56:03.374Z,58.34
2023-02-02T20:58:32.933Z,58.32
2023-02-02T21:01:05.890Z,58.75
2023-02-02T21:03:34.993Z,59.55
2023-02-02T21:06:04.172Z,60.28
2023-02-02T21:08:33.793Z,60.97
2023-02-02T21:11:02.538Z,60.84
2023-02-02T21:13:31.460Z,59.62
2023-02-02T21:16:00.807Z,59.69
2023-02-02T21:18:30.147Z,59.82
2023-02-02T21:20:59.226Z,59.83
2023-02-02T21:23:29.584Z,59.42
2023-02-02T21:25:59.106Z,59.07
2023-02-02T21:28:31.603Z,59.49
2023-02-02T21:31:03.296Z,59.52
2023-02-02T21:33:32.694Z,60.21
2023-02-02T21:36:11.097Z,60.30
2023-02-02T21:38:41.065Z,59.97
2023-02-02T21:41:16.439Z,59.59
2023-02-02T21:43:45.886Z,59.59
2023-02-02T21:46:21.383Z,59.86
2023-02-02T21:48:51.106Z,60.23
2023-02-02T21:51:25.322Z,60.49
2023-02-02T21:53:54.533Z,60.56
2023-02-02T21:56:33.849Z,61.02
2023-02-02T21:59:14.601Z,61.10
2023-02-02T22:01:45.216Z,60.40
2023-02-02T22:04:29.580Z,59.73
2023-02-02T22:07:16.937Z,59.27
2023-02-02T22:09:49.128Z,59.35
2023-02-02T22:12:24.099Z,59.69
2023-02-02T22:14:59.994Z,59.82
2023-02-02T22:17:40.709Z,60.20
2023-02-02T22:20:15.793Z,60.92
2023-02-02T22:22:47.681Z,61.21
2023-02-02T22:25:16.914Z,61.28
2023-02-02T22:27:56.051Z,61.52
2023-02-02T22:30:37.364Z,60.23
2023-02-02T22:33:08.915Z,59.24
2023-02-02T22:35:38.591Z,59.20
2023-02-02T22:38:08.725Z,59.37
2023-02-02T22:40:38.625Z,59.86
2023-02-02T22:43:08.855Z,60.37
2023-02-02T22:45:38.322Z,60.65
2023-02-02T22:48:07.806Z,60.39
2023-02-02T22:50:37.058Z,60.41
2023-02-02T22:53:07.085Z,60.24
2023-02-02T22:55:36.507Z,60.18
2023-02-02T22:58:05.793Z,60.10
2023-02-02T23:00:36.235Z,59.86
2023-02-02T23:03:06.559Z,60.74
2023-02-02T23:05:35.888Z,61.10
2023-02-02T23:08:06.290Z,60.39
2023-02-02T23:10:36.631Z,60.06
2023-02-02T23:13:06.532Z,60.47
2023-02-02T23:15:35.883Z,60.89
2023-02-02T23:18:05.356Z,61.02
2023-02-02T23:20:34.319Z,61.31
2023-02-02T23:23:03.029Z,61.43
2023-02-02T23:25:33.563Z,61.51
2023-02-02T23:28:03.951Z,61.72
2023-02-02T23:30:33.316Z,62.10
2023-02-02T23:33:02.264Z,62.32
2023-02-02T23:35:30.931Z,61.95
2023-02-02T23:37:59.882Z,61.47
2023-02-02T23:40:29.491Z,61.53
2023-02-02T23:42:59.559Z,61.68
2023-02-02T23:45:28.632Z,61.81
2023-02-02T23:47:58.704Z,61.55
2023-02-02T23:50:29.204Z,61.55
2023-02-02T23:52:58.461Z,61.29
2023-02-02T23:55:28.294Z,61.20
2023-02-02T23:57:58.537Z,61.14
